P/v Golden Gate — WDE5665 — position and weather

sailwx.info

Track history (hours):
 
Tides and Currents Weather Stations Pressure Air Temp Water Temp Dewpoint Dewpoint Depression Visibility Wind Speed Wind Dir Waves Ship Positions

P/v Golden Gate

Owner: San Francisco Bar Pilots Benevolent and Protective, San Francisco, CA. More information available from US FCC via Universal Licensing System and Coast Guard Vessel Documentation Center.

Last reported at 2015-Jul-07 19:33 UTC. Time now 2015-Jul-07 19:48 UTC.
Position N 37°48' W 122°24'.

Length 23 m; draft 2 m.

Type: Pilot. MMSI: 367370010.

Date/timePositionNaut miles runAvg speedWind from/ knotsBaromVisibWave heightAir tempDewpointWater temp
2015-Jul-07 19:33N 37°48' W 122°24'2 1.8
2015-Jul-07 18:34N 37°50' W 122°25'2 1.8
2015-Jul-07 17:33N 37°48' W 122°24'1 1.2
2015-Jul-07 16:33N 37°49' W 122°25'6 6.1
2015-Jul-07 15:33N 37°44' W 122°20'5 5.1
2015-Jul-07 14:34N 37°48' W 122°24'4 3.9
2015-Jul-07 13:33N 37°45' W 122°21'4 4.0
2015-Jul-07 12:33N 37°48' W 122°24'2 2.0
2015-Jul-07 11:34N 37°48' W 122°21'2 2.0
2015-Jul-07 10:33N 37°48' W 122°24'0 0.0
2015-Jul-07 09:33N 37°48' W 122°24'10 9.6
2015-Jul-07 08:34N 37°47' W 122°36'1211.9
2015-Jul-07 07:33N 37°44' W 122°21'0 0.5
2015-Jul-07 06:34N 37°44' W 122°21'5 4.9
2015-Jul-07 05:33N 37°48' W 122°24'0 0.0
2015-Jul-07 04:33N 37°48' W 122°24'10 9.7
2015-Jul-07 03:34N 37°47' W 122°36'1211.7
2015-Jul-07 02:33N 37°46' W 122°21'2 2.2
2015-Jul-07 01:33N 37°48' W 122°21'2 2.2
2015-Jul-07 00:34N 37°48' W 122°24'1111.0
2015-Jul-06 23:34N 37°46' W 122°37'1212.0
2015-Jul-06 22:34N 37°46' W 122°22'2 2.2
2015-Jul-06 21:33N 37°48' W 122°24'0 0.0
2015-Jul-06 20:33N 37°48' W 122°24'0 0.0
2015-Jul-06 19:33N 37°48' W 122°24'4 3.8
2015-Jul-06 18:34N 37°45' W 122°21'2 1.7
2015-Jul-06 17:34N 37°46' W 122°20'7 6.7
2015-Jul-06 16:34N 37°49' W 122°28'3 2.8
2015-Jul-06 15:34N 37°49' W 122°25'9 9.4
2015-Jul-06 14:34N 37°47' W 122°36'1313.4
2015-Jul-06 13:33N 37°48' W 122°19'3 2.6
2015-Jul-06 12:33N 37°47' W 122°22'1 1.3
2015-Jul-06 11:34N 37°48' W 122°24'0 0.0
2015-Jul-06 10:33N 37°48' W 122°24'5 5.1
2015-Jul-06 09:33N 37°44' W 122°20'1414.0
2015-Jul-06 08:33N 37°46' W 122°37'1110.7
2015-Jul-06 07:33N 37°48' W 122°24'0 0.0
2015-Jul-06 06:33N 37°48' W 122°24'0 0.0
2015-Jul-06 05:33N 37°48' W 122°24'0 0.0
2015-Jul-06 04:34N 37°48' W 122°24'4 3.8
2015-Jul-06 03:33N 37°49' W 122°28'4 4.2
2015-Jul-06 02:33N 37°49' W 122°23'1 0.9
2015-Jul-06 01:33N 37°48' W 122°24'0 0.0
2015-Jul-06 00:33N 37°48' W 122°24'0 0.0
2015-Jul-05 23:34N 37°48' W 122°24'0 0.0
2015-Jul-05 22:34N 37°48' W 122°24'0 0.0
2015-Jul-05 21:34N 37°48' W 122°24'0 0.0
2015-Jul-05 20:33N 37°48' W 122°24'9 9.1
2015-Jul-05 19:33N 37°47' W 122°35'9 9.0
2015-Jul-05 18:33N 37°48' W 122°24'0 0.0
2015-Jul-05 17:33N 37°48' W 122°24'0 0.0
2015-Jul-05 16:33N 37°48' W 122°24'6 6.5
2015-Jul-05 15:33N 37°48' W 122°32'5 5.1
2015-Jul-05 14:34N 37°49' W 122°26'2 2.1
2015-Jul-05 13:33N 37°48' W 122°24'4 3.5
2015-Jul-05 12:33N 37°48' W 122°19'4 3.7
2015-Jul-05 11:33N 37°48' W 122°24'0 0.0
2015-Jul-05 10:33N 37°48' W 122°24'0 0.0
2015-Jul-05 09:33N 37°48' W 122°24'3 3.4
2015-Jul-05 08:33N 37°48' W 122°20'3 3.4
2015-Jul-05 07:34N 37°48' W 122°24'0 0.0
2015-Jul-05 06:34N 37°48' W 122°24'0 0.0
2015-Jul-05 05:34N 37°48' W 122°24'0 0.0
2015-Jul-05 04:34N 37°48' W 122°24'0 0.0
2015-Jul-05 03:34N 37°48' W 122°24'0 0.0
2015-Jul-05 02:33N 37°48' W 122°24'0 0.0
2015-Jul-05 01:34N 37°48' W 122°24'0 0.0
2015-Jul-05 00:33N 37°48' W 122°24'0 0.0
2015-Jul-04 23:33N 37°48' W 122°24'0 0.0
2015-Jul-04 22:33N 37°48' W 122°24'3 2.8
2015-Jul-04 21:34N 37°51' W 122°23'3 2.7
2015-Jul-04 20:33N 37°48' W 122°24'0 0.0
2015-Jul-04 19:33N 37°48' W 122°24'0 0.0
2015-Jul-04 18:33N 37°48' W 122°24'3 3.1
2015-Jul-04 17:33N 37°49' W 122°20'3 2.7
2015-Jul-04 16:33N 37°47' W 122°23'1 1.4
2015-Jul-04 15:33N 37°47' W 122°21'2 2.4
2015-Jul-04 14:33N 37°48' W 122°24'5 4.9
2015-Jul-04 13:33N 37°44' W 122°21'5 4.9
2015-Jul-04 12:33N 37°48' W 122°24'4 3.9
2015-Jul-04 11:33N 37°45' W 122°21'4 3.9
2015-Jul-04 10:33N 37°48' W 122°24'0 0.0
2015-Jul-04 09:33N 37°48' W 122°24'0 0.0
2015-Jul-04 08:33N 37°48' W 122°24'0 0.0
2015-Jul-04 07:33N 37°48' W 122°24'1 1.1
2015-Jul-04 06:34N 37°48' W 122°22'3 2.5
2015-Jul-04 05:34N 37°49' W 122°19'9 9.2
2015-Jul-04 04:33N 37°48' W 122°31'9 8.9
2015-Jul-04 03:33N 37°45' W 122°20'3 2.7
2015-Jul-04 02:34N 37°47' W 122°22'1 1.3
2015-Jul-04 01:30N 37°48' W 122°24'0 0.0
2015-Jul-04 00:33N 37°48' W 122°24'5 5.4
2015-Jul-03 23:33N 37°44' W 122°20'5 4.5
2015-Jul-03 22:34N 37°48' W 122°20'3 2.6
2015-Jul-03 21:33N 37°48' W 122°24'3 3.4
2015-Jul-03 20:34N 37°45' W 122°21'3 3.4
2015-Jul-03 19:33N 37°48' W 122°24'2 1.9
2015-Jul-03 18:34N 37°48' W 122°21'3 3.0
2015-Jul-03 17:33N 37°49' W 122°25'6 6.3
2015-Jul-03 16:34N 37°43' W 122°20'5 5.3
2015-Jul-03 15:33N 37°48' W 122°24'2 2.1
2015-Jul-03 14:34N 37°49' W 122°26'2 2.1
2015-Jul-03 13:33N 37°48' W 122°24'0 0.0
2015-Jul-03 12:33N 37°48' W 122°24'4 4.4
2015-Jul-03 11:33N 37°45' W 122°20'4 4.4
2015-Jul-03 10:33N 37°48' W 122°24'0 0.0
2015-Jul-03 09:33N 37°48' W 122°24'0 0.0
2015-Jul-03 08:33N 37°48' W 122°24'5 5.4
2015-Jul-03 07:33N 37°43' W 122°20'5 5.4
2015-Jul-03 06:33N 37°48' W 122°24'0 0.0
2015-Jul-03 05:33N 37°48' W 122°24'5 4.5
2015-Jul-03 04:33N 37°44' W 122°21'4 4.3
2015-Jul-03 03:34N 37°48' W 122°22'2 2.2
2015-Jul-03 02:34N 37°49' W 122°19'4 3.7
2015-Jul-03 01:33N 37°48' W 122°24'0 0.0
2015-Jul-03 00:33N 37°48' W 122°24'6 5.7
2015-Jul-02 23:33N 37°43' W 122°19'1514.8
2015-Jul-02 22:33N 37°46' W 122°38'1313.4
2015-Jul-02 21:34N 37°46' W 122°21'2 2.1
2015-Jul-02 20:34N 37°44' W 122°21'6 5.5
2015-Jul-02 19:33N 37°49' W 122°25'0 0.4
2015-Jul-02 18:33N 37°49' W 122°25'7 6.8
2015-Jul-02 17:33N 37°55' W 122°22'0 0.0
2015-Jul-02 16:33N 37°55' W 122°22'0 0.0
2015-Jul-02 15:33N 37°55' W 122°22'0 0.0
2015-Jul-02 14:34N 37°55' W 122°22'0 0.0
2015-Jul-02 13:34N 37°55' W 122°22'0 0.0
2015-Jul-02 12:33N 37°55' W 122°22'0 0.0
2015-Jul-02 11:33N 37°55' W 122°22'0 0.0
2015-Jul-02 10:33N 37°55' W 122°22'0 0.0
2015-Jul-02 09:32N 37°55' W 122°22'0 0.0
2015-Jul-02 08:34N 37°55' W 122°22'0 0.0
2015-Jul-02 07:33N 37°55' W 122°22'0 0.0
2015-Jul-02 06:34N 37°55' W 122°22'0 0.0
2015-Jul-02 05:34N 37°55' W 122°22'0 0.0
2015-Jul-02 04:34N 37°55' W 122°22'0 0.0
2015-Jul-02 03:34N 37°55' W 122°22'0 0.0
2015-Jul-02 02:34N 37°55' W 122°22'0 0.0
2015-Jul-02 01:34N 37°55' W 122°22'0 0.0
2015-Jul-02 00:33N 37°55' W 122°22'0 0.0
2015-Jul-01 23:33N 37°55' W 122°22'0 0.0
2015-Jul-01 22:34N 37°55' W 122°22'0 0.0
2015-Jul-01 21:33N 37°55' W 122°22'0 0.0
2015-Jul-01 20:33N 37°55' W 122°22'0 0.0
2015-Jul-01 19:33N 37°55' W 122°22'0 0.0
2015-Jul-01 18:33N 37°55' W 122°22'0 0.0
2015-Jul-01 17:33N 37°55' W 122°22'0 0.0
2015-Jul-01 16:33N 37°55' W 122°22'0 0.0
2015-Jul-01 15:33N 37°55' W 122°22'0 0.0
2015-Jul-01 14:33N 37°55' W 122°22'0 0.0
2015-Jul-01 13:33N 37°55' W 122°22'0 0.0
2015-Jul-01 12:33N 37°55' W 122°22'0 0.0
2015-Jul-01 11:33N 37°55' W 122°22'0 0.0
2015-Jul-01 10:34N 37°55' W 122°22'0 0.0
2015-Jul-01 09:33N 37°55' W 122°22'0 0.0
2015-Jul-01 08:33N 37°55' W 122°22'0 0.0
2015-Jul-01 07:33N 37°55' W 122°22'0 0.0
2015-Jul-01 06:33N 37°55' W 122°22'0 0.0
2015-Jul-01 05:33N 37°55' W 122°22'0 0.0
2015-Jul-01 04:33N 37°55' W 122°22'0 0.0
2015-Jul-01 03:33N 37°55' W 122°22'0 0.0
2015-Jul-01 02:33N 37°55' W 122°22'0 0.0
2015-Jul-01 01:33N 37°55' W 122°22'0 0.0
2015-Jul-01 00:33N 37°55' W 122°22'0 0.0
2015-Jun-30 23:33N 37°55' W 122°22'0 0.0
2015-Jun-30 22:33N 37°55' W 122°22'0 0.0
2015-Jun-30 21:33N 37°55' W 122°22'0 0.0
2015-Jun-30 20:33N 37°55' W 122°22'0 0.0
2015-Jun-30 19:33N 37°55' W 122°22'0 0.0
2015-Jun-30 18:33N 37°55' W 122°22'0 0.0
2015-Jun-30 17:33N 37°55' W 122°22'0 0.0
2015-Jun-30 16:33N 37°55' W 122°22'0 0.0
2015-Jun-30 15:33N 37°55' W 122°22'0 0.0
2015-Jun-30 14:33N 37°55' W 122°22'0 0.0
2015-Jun-30 13:33N 37°55' W 122°22'0 0.0
2015-Jun-30 12:33N 37°55' W 122°22'0 0.0
2015-Jun-30 11:33N 37°55' W 122°22'0 0.0
2015-Jun-30 10:33N 37°55' W 122°22'0 0.0
2015-Jun-30 09:33N 37°55' W 122°22'0 0.0
2015-Jun-30 08:33N 37°55' W 122°22'0 0.0
2015-Jun-30 07:33N 37°55' W 122°22'0 0.0
2015-Jun-30 06:33N 37°55' W 122°22'0 0.0
2015-Jun-30 05:33N 37°55' W 122°22'0 0.0
2015-Jun-30 04:33N 37°55' W 122°22'0 0.0
2015-Jun-30 03:33N 37°55' W 122°22'0 0.0
2015-Jun-30 02:33N 37°55' W 122°22'0 0.0
2015-Jun-30 01:33N 37°55' W 122°22'0 0.0
2015-Jun-30 00:33N 37°55' W 122°22'0 0.0
2015-Jun-29 23:33N 37°55' W 122°22'0 0.0
2015-Jun-29 22:33N 37°55' W 122°22'0 0.0
2015-Jun-29 21:33N 37°55' W 122°22'0 0.0
2015-Jun-29 20:33N 37°55' W 122°22'0 0.0
2015-Jun-29 19:33N 37°55' W 122°22'0 0.0
2015-Jun-29 18:33N 37°55' W 122°22'0 0.0
2015-Jun-29 17:33N 37°55' W 122°22'0 0.0
2015-Jun-29 16:33N 37°55' W 122°22'2 2.4
2015-Jun-29 15:33N 37°54' W 122°24'7 6.5
2015-Jun-29 14:34N 37°47' W 122°22'1 1.2
2015-Jun-29 13:33N 37°48' W 122°24'0 0.0
2015-Jun-29 12:33N 37°48' W 122°24'1 0.8
2015-Jun-29 11:33N 37°49' W 122°23'8 8.3
2015-Jun-29 10:33N 37°47' W 122°34'8 7.9
2015-Jun-29 09:33N 37°48' W 122°24'0 0.0
2015-Jun-29 08:33N 37°48' W 122°24'4 3.7
2015-Jun-29 07:33N 37°49' W 122°19'3 3.3
2015-Jun-29 06:33N 37°48' W 122°23'0 0.4
2015-Jun-29 05:33N 37°48' W 122°24'0 0.0
2015-Jun-29 04:33N 37°48' W 122°24'0 0.0
2015-Jun-29 03:33N 37°48' W 122°24'3 2.7
2015-Jun-29 02:34N 37°47' W 122°21'3 2.7
2015-Jun-29 01:33N 37°48' W 122°24'0 0.0
2015-Jun-29 00:33N 37°48' W 122°24'0 0.0
2015-Jun-28 23:33N 37°48' W 122°24'0 0.0
2015-Jun-28 22:33N 37°48' W 122°24'0 0.0
2015-Jun-28 21:33N 37°48' W 122°24'0 0.0
2015-Jun-28 20:33N 37°48' W 122°24'3 3.3
2015-Jun-28 19:33N 37°50' W 122°27'6 5.7
2015-Jun-28 18:34N 37°48' W 122°20'3 2.6
2015-Jun-28 17:33N 37°48' W 122°24'6 5.7
2015-Jun-28 16:33N 37°43' W 122°20'6 5.7
2015-Jun-28 15:33N 37°48' W 122°24'0 0.2
2015-Jun-28 14:34N 37°48' W 122°24'3 2.6
2015-Jun-28 13:34N 37°48' W 122°21'3 2.6
2015-Jun-28 12:33N 37°48' W 122°24'3 3.3
2015-Jun-28 11:33N 37°46' W 122°21'3 3.3
2015-Jun-28 10:34N 37°48' W 122°24'0 0.0
2015-Jun-28 09:34N 37°48' W 122°24'0 0.0
2015-Jun-28 08:34N 37°48' W 122°24'1 1.4
2015-Jun-28 07:34N 37°49' W 122°24'1 1.4
2015-Jun-28 06:33N 37°48' W 122°24'0 0.0
2015-Jun-28 05:33N 37°48' W 122°24'0 0.0
2015-Jun-28 04:33N 37°48' W 122°24'4 3.5
2015-Jun-28 03:33N 37°49' W 122°19'3 3.0
2015-Jun-28 02:34N 37°48' W 122°23'1 1.1
2015-Jun-28 01:33N 37°48' W 122°22'3 3.4
2015-Jun-28 00:34N 37°45' W 122°21'4 3.6
2015-Jun-27 23:33N 37°48' W 122°24'3 3.3
2015-Jun-27 22:34N 37°50' W 122°27'3 3.3
2015-Jun-27 21:34N 37°48' W 122°24'4 3.8
2015-Jun-27 20:33N 37°46' W 122°20'4 3.9
2015-Jun-27 19:34N 37°48' W 122°24'  
Track history (hours):
 
Tides and Currents Weather Stations Pressure Air Temp Water Temp Dewpoint Dewpoint Depression Visibility Wind Speed Wind Dir Waves Ship Positions

P/v Golden Gate

Owner: San Francisco Bar Pilots Benevolent and Protective, San Francisco, CA. More information available from US FCC via Universal Licensing System and Coast Guard Vessel Documentation Center.

Last reported at 2015-Jul-07 19:33 UTC. Time now 2015-Jul-07 19:48 UTC.
Position N 37°48' W 122°24'.

Length 23 m; draft 2 m.

Type: Pilot. MMSI: 367370010.

Date/timePositionNaut miles runAvg speedWind from/ knotsBaromVisibWave heightAir tempDewpointWater temp
2015-Jul-07 19:33N 37°48' W 122°24'2 1.8
2015-Jul-07 18:34N 37°50' W 122°25'2 1.8
2015-Jul-07 17:33N 37°48' W 122°24'1 1.2
2015-Jul-07 16:33N 37°49' W 122°25'6 6.1
2015-Jul-07 15:33N 37°44' W 122°20'5 5.1
2015-Jul-07 14:34N 37°48' W 122°24'4 3.9
2015-Jul-07 13:33N 37°45' W 122°21'4 4.0
2015-Jul-07 12:33N 37°48' W 122°24'2 2.0
2015-Jul-07 11:34N 37°48' W 122°21'2 2.0
2015-Jul-07 10:33N 37°48' W 122°24'0 0.0
2015-Jul-07 09:33N 37°48' W 122°24'10 9.6
2015-Jul-07 08:34N 37°47' W 122°36'1211.9
2015-Jul-07 07:33N 37°44' W 122°21'0 0.5
2015-Jul-07 06:34N 37°44' W 122°21'5 4.9
2015-Jul-07 05:33N 37°48' W 122°24'0 0.0
2015-Jul-07 04:33N 37°48' W 122°24'10 9.7
2015-Jul-07 03:34N 37°47' W 122°36'1211.7
2015-Jul-07 02:33N 37°46' W 122°21'2 2.2
2015-Jul-07 01:33N 37°48' W 122°21'2 2.2
2015-Jul-07 00:34N 37°48' W 122°24'1111.0
2015-Jul-06 23:34N 37°46' W 122°37'1212.0
2015-Jul-06 22:34N 37°46' W 122°22'2 2.2
2015-Jul-06 21:33N 37°48' W 122°24'0 0.0
2015-Jul-06 20:33N 37°48' W 122°24'0 0.0
2015-Jul-06 19:33N 37°48' W 122°24'4 3.8
2015-Jul-06 18:34N 37°45' W 122°21'2 1.7
2015-Jul-06 17:34N 37°46' W 122°20'7 6.7
2015-Jul-06 16:34N 37°49' W 122°28'3 2.8
2015-Jul-06 15:34N 37°49' W 122°25'9 9.4
2015-Jul-06 14:34N 37°47' W 122°36'1313.4
2015-Jul-06 13:33N 37°48' W 122°19'3 2.6
2015-Jul-06 12:33N 37°47' W 122°22'1 1.3
2015-Jul-06 11:34N 37°48' W 122°24'0 0.0
2015-Jul-06 10:33N 37°48' W 122°24'5 5.1
2015-Jul-06 09:33N 37°44' W 122°20'1414.0
2015-Jul-06 08:33N 37°46' W 122°37'1110.7
2015-Jul-06 07:33N 37°48' W 122°24'0 0.0
2015-Jul-06 06:33N 37°48' W 122°24'0 0.0
2015-Jul-06 05:33N 37°48' W 122°24'0 0.0
2015-Jul-06 04:34N 37°48' W 122°24'4 3.8
2015-Jul-06 03:33N 37°49' W 122°28'4 4.2
2015-Jul-06 02:33N 37°49' W 122°23'1 0.9
2015-Jul-06 01:33N 37°48' W 122°24'0 0.0
2015-Jul-06 00:33N 37°48' W 122°24'0 0.0
2015-Jul-05 23:34N 37°48' W 122°24'0 0.0
2015-Jul-05 22:34N 37°48' W 122°24'0 0.0
2015-Jul-05 21:34N 37°48' W 122°24'0 0.0
2015-Jul-05 20:33N 37°48' W 122°24'9 9.1
2015-Jul-05 19:33N 37°47' W 122°35'9 9.0
2015-Jul-05 18:33N 37°48' W 122°24'0 0.0
2015-Jul-05 17:33N 37°48' W 122°24'0 0.0
2015-Jul-05 16:33N 37°48' W 122°24'6 6.5
2015-Jul-05 15:33N 37°48' W 122°32'5 5.1
2015-Jul-05 14:34N 37°49' W 122°26'2 2.1
2015-Jul-05 13:33N 37°48' W 122°24'4 3.5
2015-Jul-05 12:33N 37°48' W 122°19'4 3.7
2015-Jul-05 11:33N 37°48' W 122°24'0 0.0
2015-Jul-05 10:33N 37°48' W 122°24'0 0.0
2015-Jul-05 09:33N 37°48' W 122°24'3 3.4
2015-Jul-05 08:33N 37°48' W 122°20'3 3.4
2015-Jul-05 07:34N 37°48' W 122°24'0 0.0
2015-Jul-05 06:34N 37°48' W 122°24'0 0.0
2015-Jul-05 05:34N 37°48' W 122°24'0 0.0
2015-Jul-05 04:34N 37°48' W 122°24'0 0.0
2015-Jul-05 03:34N 37°48' W 122°24'0 0.0
2015-Jul-05 02:33N 37°48' W 122°24'0 0.0
2015-Jul-05 01:34N 37°48' W 122°24'0 0.0
2015-Jul-05 00:33N 37°48' W 122°24'0 0.0
2015-Jul-04 23:33N 37°48' W 122°24'0 0.0
2015-Jul-04 22:33N 37°48' W 122°24'3 2.8
2015-Jul-04 21:34N 37°51' W 122°23'3 2.7
2015-Jul-04 20:33N 37°48' W 122°24'0 0.0
2015-Jul-04 19:33N 37°48' W 122°24'0 0.0
2015-Jul-04 18:33N 37°48' W 122°24'3 3.1
2015-Jul-04 17:33N 37°49' W 122°20'3 2.7
2015-Jul-04 16:33N 37°47' W 122°23'1 1.4
2015-Jul-04 15:33N 37°47' W 122°21'2 2.4
2015-Jul-04 14:33N 37°48' W 122°24'5 4.9
2015-Jul-04 13:33N 37°44' W 122°21'5 4.9
2015-Jul-04 12:33N 37°48' W 122°24'4 3.9
2015-Jul-04 11:33N 37°45' W 122°21'4 3.9
2015-Jul-04 10:33N 37°48' W 122°24'0 0.0
2015-Jul-04 09:33N 37°48' W 122°24'0 0.0
2015-Jul-04 08:33N 37°48' W 122°24'0 0.0
2015-Jul-04 07:33N 37°48' W 122°24'1 1.1
2015-Jul-04 06:34N 37°48' W 122°22'3 2.5
2015-Jul-04 05:34N 37°49' W 122°19'9 9.2
2015-Jul-04 04:33N 37°48' W 122°31'9 8.9
2015-Jul-04 03:33N 37°45' W 122°20'3 2.7
2015-Jul-04 02:34N 37°47' W 122°22'1 1.3
2015-Jul-04 01:30N 37°48' W 122°24'0 0.0
2015-Jul-04 00:33N 37°48' W 122°24'5 5.4
2015-Jul-03 23:33N 37°44' W 122°20'5 4.5
2015-Jul-03 22:34N 37°48' W 122°20'3 2.6
2015-Jul-03 21:33N 37°48' W 122°24'3 3.4
2015-Jul-03 20:34N 37°45' W 122°21'3 3.4
2015-Jul-03 19:33N 37°48' W 122°24'2 1.9
2015-Jul-03 18:34N 37°48' W 122°21'3 3.0
2015-Jul-03 17:33N 37°49' W 122°25'6 6.3
2015-Jul-03 16:34N 37°43' W 122°20'5 5.3
2015-Jul-03 15:33N 37°48' W 122°24'2 2.1
2015-Jul-03 14:34N 37°49' W 122°26'2 2.1
2015-Jul-03 13:33N 37°48' W 122°24'0 0.0
2015-Jul-03 12:33N 37°48' W 122°24'4 4.4
2015-Jul-03 11:33N 37°45' W 122°20'4 4.4
2015-Jul-03 10:33N 37°48' W 122°24'0 0.0
2015-Jul-03 09:33N 37°48' W 122°24'0 0.0
2015-Jul-03 08:33N 37°48' W 122°24'5 5.4
2015-Jul-03 07:33N 37°43' W 122°20'5 5.4
2015-Jul-03 06:33N 37°48' W 122°24'0 0.0
2015-Jul-03 05:33N 37°48' W 122°24'5 4.5
2015-Jul-03 04:33N 37°44' W 122°21'4 4.3
2015-Jul-03 03:34N 37°48' W 122°22'2 2.2
2015-Jul-03 02:34N 37°49' W 122°19'4 3.7
2015-Jul-03 01:33N 37°48' W 122°24'0 0.0
2015-Jul-03 00:33N 37°48' W 122°24'6 5.7
2015-Jul-02 23:33N 37°43' W 122°19'1514.8
2015-Jul-02 22:33N 37°46' W 122°38'1313.4
2015-Jul-02 21:34N 37°46' W 122°21'2 2.1
2015-Jul-02 20:34N 37°44' W 122°21'6 5.5
2015-Jul-02 19:33N 37°49' W 122°25'0 0.4
2015-Jul-02 18:33N 37°49' W 122°25'7 6.8
2015-Jul-02 17:33N 37°55' W 122°22'0 0.0
2015-Jul-02 16:33N 37°55' W 122°22'0 0.0
2015-Jul-02 15:33N 37°55' W 122°22'0 0.0
2015-Jul-02 14:34N 37°55' W 122°22'0 0.0
2015-Jul-02 13:34N 37°55' W 122°22'0 0.0
2015-Jul-02 12:33N 37°55' W 122°22'0 0.0
2015-Jul-02 11:33N 37°55' W 122°22'0 0.0
2015-Jul-02 10:33N 37°55' W 122°22'0 0.0
2015-Jul-02 09:32N 37°55' W 122°22'0 0.0
2015-Jul-02 08:34N 37°55' W 122°22'0 0.0
2015-Jul-02 07:33N 37°55' W 122°22'0 0.0
2015-Jul-02 06:34N 37°55' W 122°22'0 0.0
2015-Jul-02 05:34N 37°55' W 122°22'0 0.0
2015-Jul-02 04:34N 37°55' W 122°22'0 0.0
2015-Jul-02 03:34N 37°55' W 122°22'0 0.0
2015-Jul-02 02:34N 37°55' W 122°22'0 0.0
2015-Jul-02 01:34N 37°55' W 122°22'0 0.0
2015-Jul-02 00:33N 37°55' W 122°22'0 0.0
2015-Jul-01 23:33N 37°55' W 122°22'0 0.0
2015-Jul-01 22:34N 37°55' W 122°22'0 0.0
2015-Jul-01 21:33N 37°55' W 122°22'0 0.0
2015-Jul-01 20:33N 37°55' W 122°22'0 0.0
2015-Jul-01 19:33N 37°55' W 122°22'0 0.0
2015-Jul-01 18:33N 37°55' W 122°22'0 0.0
2015-Jul-01 17:33N 37°55' W 122°22'0 0.0
2015-Jul-01 16:33N 37°55' W 122°22'0 0.0
2015-Jul-01 15:33N 37°55' W 122°22'0 0.0
2015-Jul-01 14:33N 37°55' W 122°22'0 0.0
2015-Jul-01 13:33N 37°55' W 122°22'0 0.0
2015-Jul-01 12:33N 37°55' W 122°22'0 0.0
2015-Jul-01 11:33N 37°55' W 122°22'0 0.0
2015-Jul-01 10:34N 37°55' W 122°22'0 0.0
2015-Jul-01 09:33N 37°55' W 122°22'0 0.0
2015-Jul-01 08:33N 37°55' W 122°22'0 0.0
2015-Jul-01 07:33N 37°55' W 122°22'0 0.0
2015-Jul-01 06:33N 37°55' W 122°22'0 0.0
2015-Jul-01 05:33N 37°55' W 122°22'0 0.0
2015-Jul-01 04:33N 37°55' W 122°22'0 0.0
2015-Jul-01 03:33N 37°55' W 122°22'0 0.0
2015-Jul-01 02:33N 37°55' W 122°22'0 0.0
2015-Jul-01 01:33N 37°55' W 122°22'0 0.0
2015-Jul-01 00:33N 37°55' W 122°22'0 0.0
2015-Jun-30 23:33N 37°55' W 122°22'0 0.0
2015-Jun-30 22:33N 37°55' W 122°22'0 0.0
2015-Jun-30 21:33N 37°55' W 122°22'0 0.0
2015-Jun-30 20:33N 37°55' W 122°22'0 0.0
2015-Jun-30 19:33N 37°55' W 122°22'0 0.0
2015-Jun-30 18:33N 37°55' W 122°22'0 0.0
2015-Jun-30 17:33N 37°55' W 122°22'0 0.0
2015-Jun-30 16:33N 37°55' W 122°22'0 0.0
2015-Jun-30 15:33N 37°55' W 122°22'0 0.0
2015-Jun-30 14:33N 37°55' W 122°22'0 0.0
2015-Jun-30 13:33N 37°55' W 122°22'0 0.0
2015-Jun-30 12:33N 37°55' W 122°22'0 0.0
2015-Jun-30 11:33N 37°55' W 122°22'0 0.0
2015-Jun-30 10:33N 37°55' W 122°22'0 0.0
2015-Jun-30 09:33N 37°55' W 122°22'0 0.0
2015-Jun-30 08:33N 37°55' W 122°22'0 0.0
2015-Jun-30 07:33N 37°55' W 122°22'0 0.0
2015-Jun-30 06:33N 37°55' W 122°22'0 0.0
2015-Jun-30 05:33N 37°55' W 122°22'0 0.0
2015-Jun-30 04:33N 37°55' W 122°22'0 0.0
2015-Jun-30 03:33N 37°55' W 122°22'0 0.0
2015-Jun-30 02:33N 37°55' W 122°22'0 0.0
2015-Jun-30 01:33N 37°55' W 122°22'0 0.0
2015-Jun-30 00:33N 37°55' W 122°22'0 0.0
2015-Jun-29 23:33N 37°55' W 122°22'0 0.0
2015-Jun-29 22:33N 37°55' W 122°22'0 0.0
2015-Jun-29 21:33N 37°55' W 122°22'0 0.0
2015-Jun-29 20:33N 37°55' W 122°22'0 0.0
2015-Jun-29 19:33N 37°55' W 122°22'0 0.0
2015-Jun-29 18:33N 37°55' W 122°22'0 0.0
2015-Jun-29 17:33N 37°55' W 122°22'0 0.0
2015-Jun-29 16:33N 37°55' W 122°22'2 2.4
2015-Jun-29 15:33N 37°54' W 122°24'7 6.5
2015-Jun-29 14:34N 37°47' W 122°22'1 1.2
2015-Jun-29 13:33N 37°48' W 122°24'0 0.0
2015-Jun-29 12:33N 37°48' W 122°24'1 0.8
2015-Jun-29 11:33N 37°49' W 122°23'8 8.3
2015-Jun-29 10:33N 37°47' W 122°34'8 7.9
2015-Jun-29 09:33N 37°48' W 122°24'0 0.0
2015-Jun-29 08:33N 37°48' W 122°24'4 3.7
2015-Jun-29 07:33N 37°49' W 122°19'3 3.3
2015-Jun-29 06:33N 37°48' W 122°23'0 0.4
2015-Jun-29 05:33N 37°48' W 122°24'0 0.0
2015-Jun-29 04:33N 37°48' W 122°24'0 0.0
2015-Jun-29 03:33N 37°48' W 122°24'3 2.7
2015-Jun-29 02:34N 37°47' W 122°21'3 2.7
2015-Jun-29 01:33N 37°48' W 122°24'0 0.0
2015-Jun-29 00:33N 37°48' W 122°24'0 0.0
2015-Jun-28 23:33N 37°48' W 122°24'0 0.0
2015-Jun-28 22:33N 37°48' W 122°24'0 0.0
2015-Jun-28 21:33N 37°48' W 122°24'0 0.0
2015-Jun-28 20:33N 37°48' W 122°24'3 3.3
2015-Jun-28 19:33N 37°50' W 122°27'6 5.7
2015-Jun-28 18:34N 37°48' W 122°20'3 2.6
2015-Jun-28 17:33N 37°48' W 122°24'6 5.7
2015-Jun-28 16:33N 37°43' W 122°20'6 5.7
2015-Jun-28 15:33N 37°48' W 122°24'0 0.2
2015-Jun-28 14:34N 37°48' W 122°24'3 2.6
2015-Jun-28 13:34N 37°48' W 122°21'3 2.6
2015-Jun-28 12:33N 37°48' W 122°24'3 3.3
2015-Jun-28 11:33N 37°46' W 122°21'3 3.3
2015-Jun-28 10:34N 37°48' W 122°24'0 0.0
2015-Jun-28 09:34N 37°48' W 122°24'0 0.0
2015-Jun-28 08:34N 37°48' W 122°24'1 1.4
2015-Jun-28 07:34N 37°49' W 122°24'1 1.4
2015-Jun-28 06:33N 37°48' W 122°24'0 0.0
2015-Jun-28 05:33N 37°48' W 122°24'0 0.0
2015-Jun-28 04:33N 37°48' W 122°24'4 3.5
2015-Jun-28 03:33N 37°49' W 122°19'3 3.0
2015-Jun-28 02:34N 37°48' W 122°23'1 1.1
2015-Jun-28 01:33N 37°48' W 122°22'3 3.4
2015-Jun-28 00:34N 37°45' W 122°21'4 3.6
2015-Jun-27 23:33N 37°48' W 122°24'3 3.3
2015-Jun-27 22:34N 37°50' W 122°27'3 3.3
2015-Jun-27 21:34N 37°48' W 122°24'4 3.8
2015-Jun-27 20:33N 37°46' W 122°20'4 3.9
2015-Jun-27 19:34N 37°48' W 122°24'  

Dump ship's entire track history